sensor_id;sensor_type;location;lat;lon;timestamp;P1;durP1;ratioP1;P2;durP2;ratioP2
68284;SDS011;55114;52.052;5.238;2023-06-10T00:00:30;10.90;;;6.85;;
68284;SDS011;55114;52.052;5.238;2023-06-10T00:02:57;10.00;;;6.75;;
68284;SDS011;55114;52.052;5.238;2023-06-10T00:05:26;9.57;;;6.90;;
68284;SDS011;55114;52.052;5.238;2023-06-10T00:07:56;10.93;;;7.00;;
68284;SDS011;55114;52.052;5.238;2023-06-10T00:10:23;8.95;;;6.45;;
68284;SDS011;55114;52.052;5.238;2023-06-10T00:12:50;10.63;;;6.88;;
68284;SDS011;55114;52.052;5.238;2023-06-10T00:15:18;12.18;;;6.68;;
68284;SDS011;55114;52.052;5.238;2023-06-10T00:17:45;10.23;;;6.90;;
68284;SDS011;55114;52.052;5.238;2023-06-10T00:20:12;9.50;;;6.85;;
68284;SDS011;55114;52.052;5.238;2023-06-10T00:22:40;9.20;;;6.68;;
68284;SDS011;55114;52.052;5.238;2023-06-10T00:25:11;11.75;;;6.40;;
68284;SDS011;55114;52.052;5.238;2023-06-10T00:27:39;9.38;;;6.50;;
68284;SDS011;55114;52.052;5.238;2023-06-10T00:30:07;9.13;;;6.37;;
68284;SDS011;55114;52.052;5.238;2023-06-10T00:32:34;8.60;;;6.28;;
68284;SDS011;55114;52.052;5.238;2023-06-10T00:35:02;8.65;;;6.13;;
68284;SDS011;55114;52.052;5.238;2023-06-10T00:37:29;10.45;;;6.40;;
68284;SDS011;55114;52.052;5.238;2023-06-10T00:39:56;10.05;;;6.30;;
68284;SDS011;55114;52.052;5.238;2023-06-10T00:42:24;8.73;;;6.20;;
68284;SDS011;55114;52.052;5.238;2023-06-10T00:44:51;8.73;;;5.90;;
68284;SDS011;55114;52.052;5.238;2023-06-10T00:47:18;8.35;;;5.85;;
68284;SDS011;55114;52.052;5.238;2023-06-10T00:49:47;9.52;;;5.88;;
68284;SDS011;55114;52.052;5.238;2023-06-10T00:52:14;8.95;;;6.25;;
68284;SDS011;55114;52.052;5.238;2023-06-10T00:54:42;12.47;;;6.33;;
68284;SDS011;55114;52.052;5.238;2023-06-10T00:57:09;9.35;;;6.30;;
68284;SDS011;55114;52.052;5.238;2023-06-10T00:59:36;8.30;;;5.90;;
68284;SDS011;55114;52.052;5.238;2023-06-10T01:02:04;10.32;;;6.05;;
68284;SDS011;55114;52.052;5.238;2023-06-10T01:04:31;12.00;;;5.80;;
68284;SDS011;55114;52.052;5.238;2023-06-10T01:09:34;9.25;;;5.65;;
68284;SDS011;55114;52.052;5.238;2023-06-10T01:12:05;10.35;;;5.40;;
68284;SDS011;55114;52.052;5.238;2023-06-10T01:14:36;8.55;;;5.32;;
68284;SDS011;55114;52.052;5.238;2023-06-10T01:17:03;9.02;;;5.47;;
68284;SDS011;55114;52.052;5.238;2023-06-10T01:19:31;9.13;;;5.70;;
68284;SDS011;55114;52.052;5.238;2023-06-10T01:22:00;8.23;;;4.90;;
68284;SDS011;55114;52.052;5.238;2023-06-10T01:24:28;11.77;;;4.93;;
68284;SDS011;55114;52.052;5.238;2023-06-10T01:26:59;8.00;;;5.05;;
68284;SDS011;55114;52.052;5.238;2023-06-10T01:29:36;12.90;;;6.25;;
68284;SDS011;55114;52.052;5.238;2023-06-10T01:32:06;9.43;;;5.10;;
68284;SDS011;55114;52.052;5.238;2023-06-10T01:34:34;8.88;;;5.00;;
68284;SDS011;55114;52.052;5.238;2023-06-10T01:37:03;8.75;;;4.80;;
68284;SDS011;55114;52.052;5.238;2023-06-10T01:39:31;11.05;;;5.13;;
68284;SDS011;55114;52.052;5.238;2023-06-10T01:41:59;7.05;;;4.75;;
68284;SDS011;55114;52.052;5.238;2023-06-10T01:44:26;9.00;;;4.80;;
68284;SDS011;55114;52.052;5.238;2023-06-10T01:46:53;8.00;;;5.53;;
68284;SDS011;55114;52.052;5.238;2023-06-10T01:49:21;8.30;;;4.78;;
68284;SDS011;55114;52.052;5.238;2023-06-10T01:51:50;12.27;;;4.90;;
68284;SDS011;55114;52.052;5.238;2023-06-10T01:54:17;8.38;;;4.80;;
68284;SDS011;55114;52.052;5.238;2023-06-10T01:56:44;7.97;;;5.17;;
68284;SDS011;55114;52.052;5.238;2023-06-10T01:59:12;8.00;;;4.85;;
68284;SDS011;55114;52.052;5.238;2023-06-10T02:01:39;7.88;;;4.68;;
68284;SDS011;55114;52.052;5.238;2023-06-10T02:04:06;10.77;;;4.55;;
68284;SDS011;55114;52.052;5.238;2023-06-10T02:06:34;8.02;;;5.00;;
68284;SDS011;55114;52.052;5.238;2023-06-10T02:09:01;7.53;;;4.63;;
68284;SDS011;55114;52.052;5.238;2023-06-10T02:11:29;7.25;;;4.38;;
68284;SDS011;55114;52.052;5.238;2023-06-10T02:13:56;8.23;;;4.43;;
68284;SDS011;55114;52.052;5.238;2023-06-10T02:16:23;9.07;;;4.90;;
68284;SDS011;55114;52.052;5.238;2023-06-10T02:18:51;9.05;;;4.53;;
68284;SDS011;55114;52.052;5.238;2023-06-10T02:21:18;8.90;;;4.33;;
68284;SDS011;55114;52.052;5.238;2023-06-10T02:23:46;10.30;;;4.57;;
68284;SDS011;55114;52.052;5.238;2023-06-10T02:26:13;9.30;;;4.65;;
68284;SDS011;55114;52.052;5.238;2023-06-10T02:28:44;8.68;;;4.53;;
68284;SDS011;55114;52.052;5.238;2023-06-10T02:31:14;8.13;;;4.50;;
68284;SDS011;55114;52.052;5.238;2023-06-10T02:33:44;6.93;;;4.40;;
68284;SDS011;55114;52.052;5.238;2023-06-10T02:36:12;8.65;;;4.50;;
68284;SDS011;55114;52.052;5.238;2023-06-10T02:38:41;10.82;;;5.18;;
68284;SDS011;55114;52.052;5.238;2023-06-10T02:41:09;8.05;;;4.22;;
68284;SDS011;55114;52.052;5.238;2023-06-10T02:43:36;8.20;;;4.57;;
68284;SDS011;55114;52.052;5.238;2023-06-10T02:46:03;9.80;;;4.70;;
68284;SDS011;55114;52.052;5.238;2023-06-10T02:48:31;9.82;;;4.40;;
68284;SDS011;55114;52.052;5.238;2023-06-10T02:50:58;9.10;;;4.50;;
68284;SDS011;55114;52.052;5.238;2023-06-10T02:53:25;7.18;;;4.43;;
68284;SDS011;55114;52.052;5.238;2023-06-10T02:55:52;9.70;;;4.80;;
68284;SDS011;55114;52.052;5.238;2023-06-10T02:58:20;9.33;;;4.40;;
68284;SDS011;55114;52.052;5.238;2023-06-10T03:00:47;9.45;;;4.20;;
68284;SDS011;55114;52.052;5.238;2023-06-10T03:03:14;8.75;;;4.78;;
68284;SDS011;55114;52.052;5.238;2023-06-10T03:05:42;8.10;;;4.30;;
68284;SDS011;55114;52.052;5.238;2023-06-10T03:08:09;10.40;;;4.53;;
68284;SDS011;55114;52.052;5.238;2023-06-10T03:10:36;8.67;;;4.33;;
68284;SDS011;55114;52.052;5.238;2023-06-10T03:13:04;8.50;;;4.30;;
68284;SDS011;55114;52.052;5.238;2023-06-10T03:15:31;9.60;;;4.60;;
68284;SDS011;55114;52.052;5.238;2023-06-10T03:17:59;7.10;;;4.07;;
68284;SDS011;55114;52.052;5.238;2023-06-10T03:20:27;7.47;;;4.60;;
68284;SDS011;55114;52.052;5.238;2023-06-10T03:22:54;8.57;;;4.40;;
68284;SDS011;55114;52.052;5.238;2023-06-10T03:25:22;9.73;;;4.18;;
68284;SDS011;55114;52.052;5.238;2023-06-10T03:27:49;9.30;;;4.95;;
68284;SDS011;55114;52.052;5.238;2023-06-10T03:30:17;9.40;;;4.25;;
68284;SDS011;55114;52.052;5.238;2023-06-10T03:32:44;7.45;;;4.15;;
68284;SDS011;55114;52.052;5.238;2023-06-10T03:35:11;7.90;;;4.47;;
68284;SDS011;55114;52.052;5.238;2023-06-10T03:37:39;7.63;;;4.65;;
68284;SDS011;55114;52.052;5.238;2023-06-10T03:40:07;7.90;;;4.25;;
68284;SDS011;55114;52.052;5.238;2023-06-10T03:42:35;9.35;;;4.40;;
68284;SDS011;55114;52.052;5.238;2023-06-10T03:45:02;10.05;;;4.65;;
68284;SDS011;55114;52.052;5.238;2023-06-10T03:47:34;7.63;;;4.47;;
68284;SDS011;55114;52.052;5.238;2023-06-10T03:50:02;8.95;;;4.20;;
68284;SDS011;55114;52.052;5.238;2023-06-10T03:52:30;10.18;;;4.38;;
68284;SDS011;55114;52.052;5.238;2023-06-10T03:54:57;7.97;;;4.18;;
68284;SDS011;55114;52.052;5.238;2023-06-10T03:57:24;7.90;;;4.25;;
68284;SDS011;55114;52.052;5.238;2023-06-10T03:59:52;7.37;;;4.10;;
68284;SDS011;55114;52.052;5.238;2023-06-10T04:02:19;10.27;;;4.78;;
68284;SDS011;55114;52.052;5.238;2023-06-10T04:04:47;9.55;;;4.30;;
68284;SDS011;55114;52.052;5.238;2023-06-10T04:07:14;8.43;;;4.50;;
68284;SDS011;55114;52.052;5.238;2023-06-10T04:09:42;9.48;;;4.80;;
68284;SDS011;55114;52.052;5.238;2023-06-10T04:12:09;8.37;;;4.40;;
68284;SDS011;55114;52.052;5.238;2023-06-10T04:14:36;8.15;;;4.00;;
68284;SDS011;55114;52.052;5.238;2023-06-10T04:17:04;8.40;;;4.40;;
68284;SDS011;55114;52.052;5.238;2023-06-10T04:19:35;9.50;;;5.18;;
68284;SDS011;55114;52.052;5.238;2023-06-10T04:22:03;7.93;;;3.90;;
68284;SDS011;55114;52.052;5.238;2023-06-10T04:24:31;8.77;;;4.53;;
68284;SDS011;55114;52.052;5.238;2023-06-10T04:26:58;10.00;;;4.03;;
68284;SDS011;55114;52.052;5.238;2023-06-10T04:29:26;9.10;;;4.18;;
68284;SDS011;55114;52.052;5.238;2023-06-10T04:31:54;9.20;;;4.20;;
68284;SDS011;55114;52.052;5.238;2023-06-10T04:34:21;9.38;;;4.47;;
68284;SDS011;55114;52.052;5.238;2023-06-10T04:36:48;9.00;;;4.43;;
68284;SDS011;55114;52.052;5.238;2023-06-10T04:39:17;9.30;;;4.30;;
68284;SDS011;55114;52.052;5.238;2023-06-10T04:41:44;8.30;;;4.40;;
68284;SDS011;55114;52.052;5.238;2023-06-10T04:44:12;8.90;;;4.22;;
68284;SDS011;55114;52.052;5.238;2023-06-10T04:46:39;8.13;;;4.45;;
68284;SDS011;55114;52.052;5.238;2023-06-10T04:49:07;8.67;;;4.53;;
68284;SDS011;55114;52.052;5.238;2023-06-10T04:51:34;9.00;;;4.47;;
68284;SDS011;55114;52.052;5.238;2023-06-10T04:54:02;8.50;;;4.70;;
68284;SDS011;55114;52.052;5.238;2023-06-10T04:56:30;8.15;;;4.47;;
68284;SDS011;55114;52.052;5.238;2023-06-10T04:58:57;10.55;;;4.30;;
68284;SDS011;55114;52.052;5.238;2023-06-10T05:01:25;8.97;;;4.70;;
68284;SDS011;55114;52.052;5.238;2023-06-10T05:03:53;7.55;;;4.60;;
68284;SDS011;55114;52.052;5.238;2023-06-10T05:06:21;9.15;;;4.70;;
68284;SDS011;55114;52.052;5.238;2023-06-10T05:08:48;10.82;;;4.40;;
68284;SDS011;55114;52.052;5.238;2023-06-10T05:11:15;8.10;;;4.60;;
68284;SDS011;55114;52.052;5.238;2023-06-10T05:13:42;7.70;;;4.43;;
68284;SDS011;55114;52.052;5.238;2023-06-10T05:16:10;8.05;;;4.45;;
68284;SDS011;55114;52.052;5.238;2023-06-10T05:18:37;12.02;;;5.15;;
68284;SDS011;55114;52.052;5.238;2023-06-10T05:21:05;9.88;;;5.05;;
68284;SDS011;55114;52.052;5.238;2023-06-10T05:23:32;8.63;;;5.13;;
68284;SDS011;55114;52.052;5.238;2023-06-10T05:25:59;9.63;;;4.63;;
68284;SDS011;55114;52.052;5.238;2023-06-10T05:28:27;9.80;;;5.07;;
68284;SDS011;55114;52.052;5.238;2023-06-10T05:30:54;9.40;;;4.60;;
68284;SDS011;55114;52.052;5.238;2023-06-10T05:33:21;10.32;;;4.78;;
68284;SDS011;55114;52.052;5.238;2023-06-10T05:35:48;11.25;;;5.00;;
68284;SDS011;55114;52.052;5.238;2023-06-10T05:38:16;10.27;;;4.90;;
68284;SDS011;55114;52.052;5.238;2023-06-10T05:40:43;7.50;;;4.55;;
68284;SDS011;55114;52.052;5.238;2023-06-10T05:43:10;8.25;;;4.82;;
68284;SDS011;55114;52.052;5.238;2023-06-10T05:45:38;8.50;;;4.65;;
68284;SDS011;55114;52.052;5.238;2023-06-10T05:48:06;8.95;;;5.13;;
68284;SDS011;55114;52.052;5.238;2023-06-10T05:50:34;7.60;;;4.70;;
68284;SDS011;55114;52.052;5.238;2023-06-10T05:53:05;10.20;;;4.72;;
68284;SDS011;55114;52.052;5.238;2023-06-10T05:55:34;9.55;;;4.75;;
68284;SDS011;55114;52.052;5.238;2023-06-10T05:58:02;8.15;;;5.00;;
68284;SDS011;55114;52.052;5.238;2023-06-10T06:00:29;9.20;;;5.30;;
68284;SDS011;55114;52.052;5.238;2023-06-10T06:02:56;9.47;;;5.23;;
68284;SDS011;55114;52.052;5.238;2023-06-10T06:05:25;10.10;;;5.10;;
68284;SDS011;55114;52.052;5.238;2023-06-10T06:07:52;9.48;;;5.10;;
68284;SDS011;55114;52.052;5.238;2023-06-10T06:10:19;10.57;;;5.72;;
68284;SDS011;55114;52.052;5.238;2023-06-10T06:12:47;12.15;;;5.07;;
68284;SDS011;55114;52.052;5.238;2023-06-10T06:15:14;8.53;;;5.50;;
68284;SDS011;55114;52.052;5.238;2023-06-10T06:17:41;8.68;;;4.97;;
68284;SDS011;55114;52.052;5.238;2023-06-10T06:20:09;9.25;;;5.05;;
68284;SDS011;55114;52.052;5.238;2023-06-10T06:22:36;8.98;;;5.13;;
68284;SDS011;55114;52.052;5.238;2023-06-10T06:25:04;10.18;;;5.07;;
68284;SDS011;55114;52.052;5.238;2023-06-10T06:27:31;10.27;;;5.20;;
68284;SDS011;55114;52.052;5.238;2023-06-10T06:29:59;10.90;;;5.25;;
68284;SDS011;55114;52.052;5.238;2023-06-10T06:32:27;10.00;;;5.57;;
68284;SDS011;55114;52.052;5.238;2023-06-10T06:34:54;9.02;;;5.30;;
68284;SDS011;55114;52.052;5.238;2023-06-10T06:37:22;9.63;;;5.43;;
68284;SDS011;55114;52.052;5.238;2023-06-10T06:39:53;8.33;;;4.93;;
68284;SDS011;55114;52.052;5.238;2023-06-10T06:42:20;8.15;;;5.18;;
68284;SDS011;55114;52.052;5.238;2023-06-10T06:44:48;10.40;;;5.60;;
68284;SDS011;55114;52.052;5.238;2023-06-10T06:47:15;8.73;;;5.78;;
68284;SDS011;55114;52.052;5.238;2023-06-10T06:49:46;8.98;;;5.60;;
68284;SDS011;55114;52.052;5.238;2023-06-10T06:52:14;9.63;;;5.43;;
68284;SDS011;55114;52.052;5.238;2023-06-10T06:54:41;8.98;;;5.30;;
68284;SDS011;55114;52.052;5.238;2023-06-10T06:57:09;9.70;;;5.57;;
68284;SDS011;55114;52.052;5.238;2023-06-10T06:59:36;8.98;;;5.40;;
68284;SDS011;55114;52.052;5.238;2023-06-10T07:02:06;7.90;;;5.25;;
68284;SDS011;55114;52.052;5.238;2023-06-10T07:04:34;9.60;;;5.40;;
68284;SDS011;55114;52.052;5.238;2023-06-10T07:07:01;9.45;;;5.63;;
68284;SDS011;55114;52.052;5.238;2023-06-10T07:09:28;9.75;;;6.05;;
68284;SDS011;55114;52.052;5.238;2023-06-10T07:11:58;9.25;;;5.40;;
68284;SDS011;55114;52.052;5.238;2023-06-10T07:14:25;10.65;;;6.00;;
68284;SDS011;55114;52.052;5.238;2023-06-10T07:16:53;8.87;;;5.90;;
68284;SDS011;55114;52.052;5.238;2023-06-10T07:19:20;9.60;;;5.97;;
68284;SDS011;55114;52.052;5.238;2023-06-10T07:21:47;9.80;;;5.60;;
68284;SDS011;55114;52.052;5.238;2023-06-10T07:24:15;8.85;;;5.85;;
68284;SDS011;55114;52.052;5.238;2023-06-10T07:26:42;8.25;;;5.47;;
68284;SDS011;55114;52.052;5.238;2023-06-10T07:29:09;9.23;;;5.30;;
68284;SDS011;55114;52.052;5.238;2023-06-10T07:31:37;12.32;;;5.57;;
68284;SDS011;55114;52.052;5.238;2023-06-10T07:34:04;8.23;;;5.45;;
68284;SDS011;55114;52.052;5.238;2023-06-10T07:36:31;9.48;;;5.45;;
68284;SDS011;55114;52.052;5.238;2023-06-10T07:38:59;8.93;;;5.53;;
68284;SDS011;55114;52.052;5.238;2023-06-10T07:41:26;8.97;;;5.60;;
68284;SDS011;55114;52.052;5.238;2023-06-10T07:43:53;8.57;;;5.40;;
68284;SDS011;55114;52.052;5.238;2023-06-10T07:46:22;9.88;;;5.80;;
68284;SDS011;55114;52.052;5.238;2023-06-10T07:48:49;10.35;;;5.80;;
68284;SDS011;55114;52.052;5.238;2023-06-10T07:51:17;9.52;;;5.75;;
68284;SDS011;55114;52.052;5.238;2023-06-10T07:53:44;9.33;;;5.83;;
68284;SDS011;55114;52.052;5.238;2023-06-10T07:56:12;9.18;;;5.70;;
68284;SDS011;55114;52.052;5.238;2023-06-10T07:58:39;7.82;;;5.32;;
68284;SDS011;55114;52.052;5.238;2023-06-10T08:01:06;11.00;;;6.10;;
68284;SDS011;55114;52.052;5.238;2023-06-10T08:03:33;10.10;;;6.07;;
68284;SDS011;55114;52.052;5.238;2023-06-10T08:06:01;9.23;;;6.07;;
68284;SDS011;55114;52.052;5.238;2023-06-10T08:08:28;8.63;;;5.63;;
68284;SDS011;55114;52.052;5.238;2023-06-10T08:10:55;9.05;;;5.93;;
68284;SDS011;55114;52.052;5.238;2023-06-10T08:13:22;11.32;;;6.32;;
68284;SDS011;55114;52.052;5.238;2023-06-10T08:15:50;7.82;;;5.65;;
68284;SDS011;55114;52.052;5.238;2023-06-10T08:18:19;10.33;;;6.27;;
68284;SDS011;55114;52.052;5.238;2023-06-10T08:20:47;12.07;;;6.78;;
68284;SDS011;55114;52.052;5.238;2023-06-10T08:23:14;11.15;;;5.97;;
68284;SDS011;55114;52.052;5.238;2023-06-10T08:25:41;8.85;;;5.90;;
68284;SDS011;55114;52.052;5.238;2023-06-10T08:28:08;11.18;;;6.35;;
68284;SDS011;55114;52.052;5.238;2023-06-10T08:30:36;8.30;;;5.60;;
68284;SDS011;55114;52.052;5.238;2023-06-10T08:33:03;12.38;;;6.10;;
68284;SDS011;55114;52.052;5.238;2023-06-10T08:35:30;10.52;;;6.53;;
68284;SDS011;55114;52.052;5.238;2023-06-10T08:37:58;8.63;;;6.22;;
68284;SDS011;55114;52.052;5.238;2023-06-10T08:40:25;8.85;;;5.97;;
68284;SDS011;55114;52.052;5.238;2023-06-10T08:45:29;8.68;;;5.75;;
68284;SDS011;55114;52.052;5.238;2023-06-10T08:48:04;9.27;;;6.53;;
68284;SDS011;55114;52.052;5.238;2023-06-10T08:50:36;10.43;;;6.82;;
68284;SDS011;55114;52.052;5.238;2023-06-10T08:53:04;8.20;;;6.00;;
68284;SDS011;55114;52.052;5.238;2023-06-10T08:55:33;9.17;;;6.00;;
68284;SDS011;55114;52.052;5.238;2023-06-10T08:58:02;9.35;;;6.28;;
68284;SDS011;55114;52.052;5.238;2023-06-10T09:00:30;9.85;;;5.70;;
68284;SDS011;55114;52.052;5.238;2023-06-10T09:02:58;9.60;;;6.07;;
68284;SDS011;55114;52.052;5.238;2023-06-10T09:05:32;7.45;;;5.90;;
68284;SDS011;55114;52.052;5.238;2023-06-10T09:08:00;9.60;;;6.13;;
68284;SDS011;55114;52.052;5.238;2023-06-10T09:10:29;8.25;;;6.13;;
68284;SDS011;55114;52.052;5.238;2023-06-10T09:12:56;9.32;;;6.10;;
68284;SDS011;55114;52.052;5.238;2023-06-10T09:15:24;8.90;;;5.95;;
68284;SDS011;55114;52.052;5.238;2023-06-10T09:17:51;10.55;;;6.10;;
68284;SDS011;55114;52.052;5.238;2023-06-10T09:20:18;10.10;;;6.27;;
68284;SDS011;55114;52.052;5.238;2023-06-10T09:22:46;8.57;;;6.28;;
68284;SDS011;55114;52.052;5.238;2023-06-10T09:25:13;8.63;;;6.00;;
68284;SDS011;55114;52.052;5.238;2023-06-10T09:27:48;9.73;;;6.25;;
68284;SDS011;55114;52.052;5.238;2023-06-10T09:30:24;8.07;;;6.15;;
68284;SDS011;55114;52.052;5.238;2023-06-10T09:32:53;11.57;;;6.57;;
68284;SDS011;55114;52.052;5.238;2023-06-10T09:35:26;9.57;;;6.07;;
68284;SDS011;55114;52.052;5.238;2023-06-10T09:37:55;10.23;;;6.60;;
68284;SDS011;55114;52.052;5.238;2023-06-10T09:40:23;9.57;;;6.25;;
68284;SDS011;55114;52.052;5.238;2023-06-10T09:42:54;8.90;;;6.47;;
68284;SDS011;55114;52.052;5.238;2023-06-10T09:45:22;13.20;;;6.00;;
68284;SDS011;55114;52.052;5.238;2023-06-10T09:47:53;7.13;;;6.05;;
68284;SDS011;55114;52.052;5.238;2023-06-10T09:50:22;8.20;;;6.32;;
68284;SDS011;55114;52.052;5.238;2023-06-10T09:52:50;7.95;;;6.07;;
68284;SDS011;55114;52.052;5.238;2023-06-10T09:55:17;8.13;;;6.30;;
68284;SDS011;55114;52.052;5.238;2023-06-10T09:57:45;9.33;;;6.17;;
68284;SDS011;55114;52.052;5.238;2023-06-10T10:00:16;8.73;;;6.10;;
68284;SDS011;55114;52.052;5.238;2023-06-10T10:02:45;7.50;;;6.00;;
68284;SDS011;55114;52.052;5.238;2023-06-10T10:05:17;8.63;;;6.32;;
68284;SDS011;55114;52.052;5.238;2023-06-10T10:07:44;8.35;;;6.55;;
68284;SDS011;55114;52.052;5.238;2023-06-10T10:10:12;8.50;;;6.30;;
68284;SDS011;55114;52.052;5.238;2023-06-10T10:12:41;7.82;;;6.30;;
68284;SDS011;55114;52.052;5.238;2023-06-10T10:15:09;8.05;;;6.32;;
68284;SDS011;55114;52.052;5.238;2023-06-10T10:17:42;8.32;;;6.15;;
68284;SDS011;55114;52.052;5.238;2023-06-10T10:20:12;9.43;;;6.20;;
68284;SDS011;55114;52.052;5.238;2023-06-10T10:22:43;7.70;;;6.50;;
68284;SDS011;55114;52.052;5.238;2023-06-10T10:25:11;9.15;;;6.63;;
68284;SDS011;55114;52.052;5.238;2023-06-10T10:30:10;10.90;;;6.60;;
68284;SDS011;55114;52.052;5.238;2023-06-10T10:32:38;7.30;;;5.88;;
68284;SDS011;55114;52.052;5.238;2023-06-10T10:35:12;8.67;;;6.40;;
68284;SDS011;55114;52.052;5.238;2023-06-10T10:37:39;7.93;;;6.57;;
68284;SDS011;55114;52.052;5.238;2023-06-10T10:40:07;9.27;;;6.25;;
68284;SDS011;55114;52.052;5.238;2023-06-10T10:42:35;7.93;;;6.40;;
68284;SDS011;55114;52.052;5.238;2023-06-10T10:45:03;9.50;;;6.80;;
68284;SDS011;55114;52.052;5.238;2023-06-10T10:47:36;8.93;;;6.30;;
68284;SDS011;55114;52.052;5.238;2023-06-10T10:50:23;12.20;;;6.03;;
68284;SDS011;55114;52.052;5.238;2023-06-10T10:52:52;9.13;;;6.68;;
68284;SDS011;55114;52.052;5.238;2023-06-10T10:55:20;9.85;;;6.45;;
68284;SDS011;55114;52.052;5.238;2023-06-10T10:57:58;8.40;;;6.10;;
68284;SDS011;55114;52.052;5.238;2023-06-10T11:00:30;8.70;;;6.20;;
68284;SDS011;55114;52.052;5.238;2023-06-10T11:03:05;10.90;;;6.40;;
68284;SDS011;55114;52.052;5.238;2023-06-10T11:05:37;8.40;;;6.68;;
68284;SDS011;55114;52.052;5.238;2023-06-10T11:08:08;7.65;;;6.55;;
68284;SDS011;55114;52.052;5.238;2023-06-10T11:10:40;13.15;;;6.78;;
68284;SDS011;55114;52.052;5.238;2023-06-10T11:13:08;8.43;;;6.57;;
68284;SDS011;55114;52.052;5.238;2023-06-10T11:15:42;9.13;;;6.50;;
68284;SDS011;55114;52.052;5.238;2023-06-10T11:20:59;8.90;;;6.10;;
68284;SDS011;55114;52.052;5.238;2023-06-10T11:28:42;7.88;;;6.47;;
68284;SDS011;55114;52.052;5.238;2023-06-10T11:31:18;7.03;;;6.32;;
68284;SDS011;55114;52.052;5.238;2023-06-10T11:33:52;7.18;;;6.38;;
68284;SDS011;55114;52.052;5.238;2023-06-10T11:36:21;10.10;;;6.97;;
68284;SDS011;55114;52.052;5.238;2023-06-10T11:39:04;7.57;;;5.80;;
68284;SDS011;55114;52.052;5.238;2023-06-10T11:41:32;7.63;;;6.53;;
68284;SDS011;55114;52.052;5.238;2023-06-10T11:44:18;8.70;;;6.50;;
68284;SDS011;55114;52.052;5.238;2023-06-10T11:46:47;9.50;;;6.88;;
68284;SDS011;55114;52.052;5.238;2023-06-10T11:49:14;7.80;;;6.47;;
68284;SDS011;55114;52.052;5.238;2023-06-10T11:51:42;8.93;;;6.37;;
68284;SDS011;55114;52.052;5.238;2023-06-10T11:54:17;9.98;;;6.50;;
68284;SDS011;55114;52.052;5.238;2023-06-10T11:56:45;8.40;;;6.50;;
68284;SDS011;55114;52.052;5.238;2023-06-10T11:59:22;8.38;;;7.15;;
68284;SDS011;55114;52.052;5.238;2023-06-10T12:02:16;9.52;;;6.95;;
68284;SDS011;55114;52.052;5.238;2023-06-10T12:04:49;8.00;;;6.40;;
68284;SDS011;55114;52.052;5.238;2023-06-10T12:07:17;7.10;;;6.35;;
68284;SDS011;55114;52.052;5.238;2023-06-10T12:09:46;8.93;;;6.18;;
68284;SDS011;55114;52.052;5.238;2023-06-10T12:12:30;8.07;;;6.50;;
68284;SDS011;55114;52.052;5.238;2023-06-10T12:14:58;8.23;;;6.80;;
68284;SDS011;55114;52.052;5.238;2023-06-10T12:20:06;8.32;;;6.75;;
68284;SDS011;55114;52.052;5.238;2023-06-10T12:22:46;7.82;;;6.63;;
68284;SDS011;55114;52.052;5.238;2023-06-10T12:25:25;8.20;;;6.45;;
68284;SDS011;55114;52.052;5.238;2023-06-10T12:27:54;8.05;;;6.63;;
68284;SDS011;55114;52.052;5.238;2023-06-10T12:30:26;8.03;;;7.03;;
68284;SDS011;55114;52.052;5.238;2023-06-10T12:35:48;8.15;;;6.20;;
68284;SDS011;55114;52.052;5.238;2023-06-10T12:38:33;7.75;;;5.93;;
68284;SDS011;55114;52.052;5.238;2023-06-10T12:41:08;8.23;;;6.05;;
68284;SDS011;55114;52.052;5.238;2023-06-10T12:43:43;8.50;;;6.10;;
68284;SDS011;55114;52.052;5.238;2023-06-10T12:46:13;7.47;;;5.90;;
68284;SDS011;55114;52.052;5.238;2023-06-10T12:48:48;9.23;;;6.30;;
68284;SDS011;55114;52.052;5.238;2023-06-10T12:51:20;8.80;;;6.43;;
68284;SDS011;55114;52.052;5.238;2023-06-10T12:54:05;8.45;;;6.32;;
68284;SDS011;55114;52.052;5.238;2023-06-10T12:56:32;7.63;;;5.93;;
68284;SDS011;55114;52.052;5.238;2023-06-10T12:59:07;8.05;;;6.50;;
68284;SDS011;55114;52.052;5.238;2023-06-10T13:01:37;9.25;;;6.22;;
68284;SDS011;55114;52.052;5.238;2023-06-10T13:04:06;11.75;;;7.18;;
68284;SDS011;55114;52.052;5.238;2023-06-10T13:06:52;7.63;;;6.82;;
68284;SDS011;55114;52.052;5.238;2023-06-10T13:09:20;7.87;;;7.07;;
68284;SDS011;55114;52.052;5.238;2023-06-10T13:11:47;7.55;;;6.75;;
68284;SDS011;55114;52.052;5.238;2023-06-10T13:14:15;7.78;;;6.97;;
68284;SDS011;55114;52.052;5.238;2023-06-10T13:16:42;9.00;;;7.03;;
68284;SDS011;55114;52.052;5.238;2023-06-10T13:19:11;9.57;;;5.93;;
68284;SDS011;55114;52.052;5.238;2023-06-10T13:21:38;7.40;;;6.23;;
68284;SDS011;55114;52.052;5.238;2023-06-10T13:24:06;8.52;;;6.30;;
68284;SDS011;55114;52.052;5.238;2023-06-10T13:26:34;7.82;;;6.18;;
68284;SDS011;55114;52.052;5.238;2023-06-10T13:29:01;7.18;;;6.00;;
68284;SDS011;55114;52.052;5.238;2023-06-10T13:31:29;6.97;;;6.07;;
68284;SDS011;55114;52.052;5.238;2023-06-10T13:33:56;9.40;;;6.40;;
68284;SDS011;55114;52.052;5.238;2023-06-10T13:36:24;7.95;;;6.72;;
68284;SDS011;55114;52.052;5.238;2023-06-10T13:38:51;9.02;;;6.68;;
68284;SDS011;55114;52.052;5.238;2023-06-10T13:41:19;8.35;;;6.65;;
68284;SDS011;55114;52.052;5.238;2023-06-10T13:43:46;7.65;;;6.60;;
68284;SDS011;55114;52.052;5.238;2023-06-10T13:46:13;11.83;;;6.83;;
68284;SDS011;55114;52.052;5.238;2023-06-10T13:48:41;8.65;;;6.63;;
68284;SDS011;55114;52.052;5.238;2023-06-10T13:51:08;8.57;;;6.50;;
68284;SDS011;55114;52.052;5.238;2023-06-10T13:53:37;10.57;;;6.18;;
68284;SDS011;55114;52.052;5.238;2023-06-10T13:56:05;9.77;;;6.72;;
68284;SDS011;55114;52.052;5.238;2023-06-10T13:58:33;7.97;;;6.63;;
68284;SDS011;55114;52.052;5.238;2023-06-10T14:01:05;8.43;;;6.63;;
68284;SDS011;55114;52.052;5.238;2023-06-10T14:03:32;10.15;;;6.78;;
68284;SDS011;55114;52.052;5.238;2023-06-10T14:06:00;8.20;;;6.65;;
68284;SDS011;55114;52.052;5.238;2023-06-10T14:08:27;7.70;;;6.82;;
68284;SDS011;55114;52.052;5.238;2023-06-10T14:10:55;8.57;;;6.70;;
68284;SDS011;55114;52.052;5.238;2023-06-10T14:13:22;7.63;;;6.72;;
68284;SDS011;55114;52.052;5.238;2023-06-10T14:15:49;8.75;;;6.25;;
68284;SDS011;55114;52.052;5.238;2023-06-10T14:18:17;8.07;;;6.70;;
68284;SDS011;55114;52.052;5.238;2023-06-10T14:20:44;9.88;;;6.78;;
68284;SDS011;55114;52.052;5.238;2023-06-10T14:23:11;7.70;;;6.80;;
68284;SDS011;55114;52.052;5.238;2023-06-10T14:25:38;10.65;;;6.30;;
68284;SDS011;55114;52.052;5.238;2023-06-10T14:28:06;7.72;;;6.57;;
68284;SDS011;55114;52.052;5.238;2023-06-10T14:30:33;8.15;;;6.75;;
68284;SDS011;55114;52.052;5.238;2023-06-10T14:33:02;8.93;;;6.60;;
68284;SDS011;55114;52.052;5.238;2023-06-10T14:35:29;11.37;;;6.13;;
68284;SDS011;55114;52.052;5.238;2023-06-10T14:37:56;9.73;;;6.47;;
68284;SDS011;55114;52.052;5.238;2023-06-10T14:40:26;6.78;;;6.07;;
68284;SDS011;55114;52.052;5.238;2023-06-10T14:42:55;7.63;;;6.20;;
68284;SDS011;55114;52.052;5.238;2023-06-10T14:45:22;8.70;;;6.13;;
68284;SDS011;55114;52.052;5.238;2023-06-10T14:47:51;7.67;;;6.13;;
68284;SDS011;55114;52.052;5.238;2023-06-10T14:50:18;8.55;;;6.25;;
68284;SDS011;55114;52.052;5.238;2023-06-10T14:52:46;8.02;;;6.28;;
68284;SDS011;55114;52.052;5.238;2023-06-10T14:55:14;7.68;;;6.82;;
68284;SDS011;55114;52.052;5.238;2023-06-10T14:57:42;7.07;;;6.38;;
68284;SDS011;55114;52.052;5.238;2023-06-10T15:00:09;9.07;;;6.57;;
68284;SDS011;55114;52.052;5.238;2023-06-10T15:02:37;7.43;;;6.05;;
68284;SDS011;55114;52.052;5.238;2023-06-10T15:05:05;7.85;;;6.20;;
68284;SDS011;55114;52.052;5.238;2023-06-10T15:07:32;7.35;;;6.63;;
68284;SDS011;55114;52.052;5.238;2023-06-10T15:10:00;7.45;;;6.60;;
68284;SDS011;55114;52.052;5.238;2023-06-10T15:12:27;8.30;;;6.10;;
68284;SDS011;55114;52.052;5.238;2023-06-10T15:14:54;7.28;;;5.63;;